sensor_id;sensor_type;location;lat;lon;timestamp;pressure;altitude;pressure_sealevel;temperature;humidity
740;BME280;354;42.694;23.336;2022-07-22T00:01:44;95331.69;;;20.85;100.00
740;BME280;354;42.694;23.336;2022-07-22T00:04:09;95338.13;;;20.74;100.00
740;BME280;354;42.694;23.336;2022-07-22T00:06:35;95348.84;;;20.64;100.00
740;BME280;354;42.694;23.336;2022-07-22T00:09:00;95351.00;;;20.57;100.00
740;BME280;354;42.694;23.336;2022-07-22T00:11:26;95353.94;;;20.45;100.00
740;BME280;354;42.694;23.336;2022-07-22T00:13:51;95348.63;;;20.40;100.00
740;BME280;354;42.694;23.336;2022-07-22T00:16:16;95312.59;;;20.22;100.00
740;BME280;354;42.694;23.336;2022-07-22T00:18:42;95339.81;;;20.49;100.00
740;BME280;354;42.694;23.336;2022-07-22T00:21:07;95344.59;;;20.52;100.00
740;BME280;354;42.694;23.336;2022-07-22T00:23:33;95349.16;;;20.52;100.00
740;BME280;354;42.694;23.336;2022-07-22T00:25:58;95347.25;;;20.58;100.00
740;BME280;354;42.694;23.336;2022-07-22T00:28:24;95348.88;;;20.53;100.00
740;BME280;354;42.694;23.336;2022-07-22T00:30:49;95351.84;;;20.47;100.00
740;BME280;354;42.694;23.336;2022-07-22T00:33:15;95351.81;;;20.42;100.00
740;BME280;354;42.694;23.336;2022-07-22T00:35:40;95352.59;;;20.37;100.00
740;BME280;354;42.694;23.336;2022-07-22T00:38:05;95361.69;;;20.36;100.00
740;BME280;354;42.694;23.336;2022-07-22T00:40:31;95360.63;;;20.37;100.00
740;BME280;354;42.694;23.336;2022-07-22T00:42:56;95363.84;;;20.39;100.00
740;BME280;354;42.694;23.336;2022-07-22T00:45:22;95363.28;;;20.37;100.00
740;BME280;354;42.694;23.336;2022-07-22T00:47:47;95365.44;;;20.35;100.00
740;BME280;354;42.694;23.336;2022-07-22T00:50:13;95365.44;;;20.30;100.00
740;BME280;354;42.694;23.336;2022-07-22T00:52:40;95357.97;;;20.27;100.00
740;BME280;354;42.694;23.336;2022-07-22T00:55:07;95355.31;;;20.17;100.00
740;BME280;354;42.694;23.336;2022-07-22T00:57:32;95348.91;;;20.18;100.00
740;BME280;354;42.694;23.336;2022-07-22T00:59:58;95350.50;;;20.14;100.00
740;BME280;354;42.694;23.336;2022-07-22T01:02:24;95346.22;;;20.13;100.00
740;BME280;354;42.694;23.336;2022-07-22T01:04:50;95329.13;;;19.93;100.00
740;BME280;354;42.694;23.336;2022-07-22T01:07:15;95350.78;;;20.02;100.00
740;BME280;354;42.694;23.336;2022-07-22T01:09:44;95354.75;;;20.05;100.00
740;BME280;354;42.694;23.336;2022-07-22T01:12:10;95345.72;;;20.00;100.00
740;BME280;354;42.694;23.336;2022-07-22T01:14:36;95358.25;;;20.00;100.00
740;BME280;354;42.694;23.336;2022-07-22T01:17:02;95352.09;;;19.99;100.00
740;BME280;354;42.694;23.336;2022-07-22T01:19:27;95356.09;;;19.87;100.00
740;BME280;354;42.694;23.336;2022-07-22T01:21:53;95351.81;;;19.76;100.00
740;BME280;354;42.694;23.336;2022-07-22T01:24:19;95356.63;;;19.68;100.00
740;BME280;354;42.694;23.336;2022-07-22T01:26:45;95354.22;;;19.67;100.00
740;BME280;354;42.694;23.336;2022-07-22T01:29:10;95357.88;;;19.56;100.00
740;BME280;354;42.694;23.336;2022-07-22T01:31:36;95347.47;;;19.49;100.00
740;BME280;354;42.694;23.336;2022-07-22T01:34:01;95349.88;;;19.56;100.00
740;BME280;354;42.694;23.336;2022-07-22T01:36:28;95359.56;;;19.67;100.00
740;BME280;354;42.694;23.336;2022-07-22T01:38:54;95357.16;;;19.65;100.00
740;BME280;354;42.694;23.336;2022-07-22T01:41:20;95352.31;;;19.57;100.00
740;BME280;354;42.694;23.336;2022-07-22T01:43:45;95362.19;;;19.57;100.00
740;BME280;354;42.694;23.336;2022-07-22T01:46:11;95348.81;;;19.46;100.00
740;BME280;354;42.694;23.336;2022-07-22T01:48:36;95357.31;;;19.38;100.00
740;BME280;354;42.694;23.336;2022-07-22T01:51:01;95342.09;;;19.34;100.00
740;BME280;354;42.694;23.336;2022-07-22T01:53:27;95350.13;;;19.39;100.00
740;BME280;354;42.694;23.336;2022-07-22T01:55:53;95354.41;;;19.50;100.00
740;BME280;354;42.694;23.336;2022-07-22T01:58:18;95354.13;;;19.41;100.00
740;BME280;354;42.694;23.336;2022-07-22T02:00:44;95353.31;;;19.31;100.00
740;BME280;354;42.694;23.336;2022-07-22T02:03:09;95360.47;;;19.20;100.00
740;BME280;354;42.694;23.336;2022-07-22T02:05:36;95348.22;;;19.19;100.00
740;BME280;354;42.694;23.336;2022-07-22T02:08:07;95367.72;;;19.30;100.00
740;BME280;354;42.694;23.336;2022-07-22T02:10:33;95369.00;;;19.22;100.00
740;BME280;354;42.694;23.336;2022-07-22T02:12:59;95369.56;;;19.24;100.00
740;BME280;354;42.694;23.336;2022-07-22T02:15:25;95369.81;;;19.22;100.00
740;BME280;354;42.694;23.336;2022-07-22T02:17:51;95353.53;;;19.19;100.00
740;BME280;354;42.694;23.336;2022-07-22T02:20:17;95378.13;;;19.36;100.00
740;BME280;354;42.694;23.336;2022-07-22T02:22:42;95374.94;;;19.34;100.00
740;BME280;354;42.694;23.336;2022-07-22T02:25:08;95382.38;;;19.32;100.00
740;BME280;354;42.694;23.336;2022-07-22T02:27:34;95377.81;;;19.28;100.00
740;BME280;354;42.694;23.336;2022-07-22T02:29:59;95373.78;;;19.15;100.00
740;BME280;354;42.694;23.336;2022-07-22T02:32:25;95365.78;;;19.10;100.00
740;BME280;354;42.694;23.336;2022-07-22T02:34:50;95373.25;;;19.13;100.00
740;BME280;354;42.694;23.336;2022-07-22T02:37:16;95353.91;;;18.80;100.00
740;BME280;354;42.694;23.336;2022-07-22T02:39:42;95370.75;;;18.91;100.00
740;BME280;354;42.694;23.336;2022-07-22T02:42:07;95365.91;;;18.83;100.00
740;BME280;354;42.694;23.336;2022-07-22T02:44:33;95362.78;;;18.91;100.00
740;BME280;354;42.694;23.336;2022-07-22T02:46:58;95366.75;;;18.88;100.00
740;BME280;354;42.694;23.336;2022-07-22T02:49:23;95362.22;;;18.94;100.00
740;BME280;354;42.694;23.336;2022-07-22T02:51:49;95363.28;;;18.88;100.00
740;BME280;354;42.694;23.336;2022-07-22T02:54:14;95367.31;;;18.90;100.00
740;BME280;354;42.694;23.336;2022-07-22T02:56:40;95383.28;;;18.90;100.00
740;BME280;354;42.694;23.336;2022-07-22T02:59:05;95378.97;;;18.79;100.00
740;BME280;354;42.694;23.336;2022-07-22T03:01:30;95370.31;;;18.67;100.00
740;BME280;354;42.694;23.336;2022-07-22T03:03:56;95372.13;;;18.56;100.00
740;BME280;354;42.694;23.336;2022-07-22T03:06:21;95376.16;;;18.59;100.00
740;BME280;354;42.694;23.336;2022-07-22T03:08:47;95371.56;;;18.49;100.00
740;BME280;354;42.694;23.336;2022-07-22T03:11:12;95372.94;;;18.57;100.00
740;BME280;354;42.694;23.336;2022-07-22T03:13:38;95373.75;;;18.62;100.00
740;BME280;354;42.694;23.336;2022-07-22T03:16:03;95371.16;;;18.67;100.00
740;BME280;354;42.694;23.336;2022-07-22T03:18:29;95376.72;;;18.66;100.00
740;BME280;354;42.694;23.336;2022-07-22T03:20:54;95360.69;;;18.56;100.00
740;BME280;354;42.694;23.336;2022-07-22T03:23:19;95376.84;;;18.81;100.00
740;BME280;354;42.694;23.336;2022-07-22T03:25:45;95373.38;;;18.81;100.00
740;BME280;354;42.694;23.336;2022-07-22T03:28:10;95377.63;;;18.77;100.00
740;BME280;354;42.694;23.336;2022-07-22T03:30:36;95376.53;;;18.78;100.00
740;BME280;354;42.694;23.336;2022-07-22T03:33:01;95379.00;;;18.89;100.00
740;BME280;354;42.694;23.336;2022-07-22T03:35:27;95376.38;;;19.00;100.00
740;BME280;354;42.694;23.336;2022-07-22T03:37:52;95382.31;;;19.07;100.00
740;BME280;354;42.694;23.336;2022-07-22T03:40:17;95378.03;;;19.11;100.00
740;BME280;354;42.694;23.336;2022-07-22T03:42:43;95376.97;;;19.12;100.00
740;BME280;354;42.694;23.336;2022-07-22T03:45:09;95381.53;;;19.16;100.00
740;BME280;354;42.694;23.336;2022-07-22T03:47:35;95382.34;;;19.27;100.00
740;BME280;354;42.694;23.336;2022-07-22T03:50:01;95388.81;;;19.36;100.00
740;BME280;354;42.694;23.336;2022-07-22T03:52:28;95390.69;;;19.46;100.00
740;BME280;354;42.694;23.336;2022-07-22T03:54:54;95394.97;;;19.47;100.00
740;BME280;354;42.694;23.336;2022-07-22T03:57:19;95395.81;;;19.58;100.00
740;BME280;354;42.694;23.336;2022-07-22T03:59:45;95392.09;;;19.64;100.00
740;BME280;354;42.694;23.336;2022-07-22T04:02:11;95397.72;;;19.67;100.00
740;BME280;354;42.694;23.336;2022-07-22T04:04:36;95399.59;;;19.67;100.00
740;BME280;354;42.694;23.336;2022-07-22T04:07:02;95400.41;;;19.72;100.00
740;BME280;354;42.694;23.336;2022-07-22T04:09:27;95404.69;;;19.79;100.00
740;BME280;354;42.694;23.336;2022-07-22T04:11:53;95406.28;;;19.85;100.00
740;BME280;354;42.694;23.336;2022-07-22T04:14:19;95406.56;;;19.93;100.00
740;BME280;354;42.694;23.336;2022-07-22T04:16:44;95412.19;;;20.07;100.00
740;BME280;354;42.694;23.336;2022-07-22T04:19:10;95408.19;;;20.20;100.00
740;BME280;354;42.694;23.336;2022-07-22T04:21:36;95411.13;;;20.39;100.00
740;BME280;354;42.694;23.336;2022-07-22T04:24:02;95404.19;;;20.68;100.00
740;BME280;354;42.694;23.336;2022-07-22T04:26:28;95414.53;;;20.95;100.00
740;BME280;354;42.694;23.336;2022-07-22T04:28:53;95408.50;;;21.44;100.00
740;BME280;354;42.694;23.336;2022-07-22T04:31:19;95409.38;;;21.84;100.00
740;BME280;354;42.694;23.336;2022-07-22T04:33:44;95415.63;;;22.08;100.00
740;BME280;354;42.694;23.336;2022-07-22T04:36:10;95411.91;;;22.04;100.00
740;BME280;354;42.694;23.336;2022-07-22T04:38:35;95412.44;;;22.75;100.00
740;BME280;354;42.694;23.336;2022-07-22T04:41:01;95424.13;;;23.37;100.00
740;BME280;354;42.694;23.336;2022-07-22T04:43:26;95432.50;;;23.97;94.18
740;BME280;354;42.694;23.336;2022-07-22T04:45:51;95436.03;;;24.82;89.57
740;BME280;354;42.694;23.336;2022-07-22T04:48:17;95409.75;;;25.75;81.70
740;BME280;354;42.694;23.336;2022-07-22T04:50:43;95430.25;;;26.79;74.03
740;BME280;354;42.694;23.336;2022-07-22T04:53:09;95435.63;;;27.33;70.23
740;BME280;354;42.694;23.336;2022-07-22T04:55:34;95446.94;;;27.44;67.42
740;BME280;354;42.694;23.336;2022-07-22T04:57:59;95431.47;;;27.84;64.79
740;BME280;354;42.694;23.336;2022-07-22T05:00:25;95428.97;;;28.31;62.13
740;BME280;354;42.694;23.336;2022-07-22T05:02:50;95449.00;;;28.82;59.77
740;BME280;354;42.694;23.336;2022-07-22T05:05:16;95447.78;;;29.94;56.97
740;BME280;354;42.694;23.336;2022-07-22T05:07:41;95445.63;;;30.71;55.37
740;BME280;354;42.694;23.336;2022-07-22T05:10:07;95429.06;;;31.55;51.48
740;BME280;354;42.694;23.336;2022-07-22T05:12:33;95444.63;;;32.31;47.95
740;BME280;354;42.694;23.336;2022-07-22T05:14:58;95453.09;;;32.30;45.98
740;BME280;354;42.694;23.336;2022-07-22T05:17:23;95460.25;;;32.34;46.79
740;BME280;354;42.694;23.336;2022-07-22T05:19:49;95449.00;;;31.95;48.34
740;BME280;354;42.694;23.336;2022-07-22T05:22:14;95444.78;;;32.78;45.05
740;BME280;354;42.694;23.336;2022-07-22T05:24:40;95448.31;;;33.39;44.41
740;BME280;354;42.694;23.336;2022-07-22T05:27:05;95464.88;;;33.62;42.91
740;BME280;354;42.694;23.336;2022-07-22T05:29:30;95453.19;;;33.45;42.11
740;BME280;354;42.694;23.336;2022-07-22T05:31:56;95460.03;;;33.71;41.64
740;BME280;354;42.694;23.336;2022-07-22T05:34:21;95454.91;;;34.01;42.14
740;BME280;354;42.694;23.336;2022-07-22T05:36:47;95451.13;;;34.79;40.78
740;BME280;354;42.694;23.336;2022-07-22T05:39:12;95453.94;;;34.28;40.59
740;BME280;354;42.694;23.336;2022-07-22T05:41:37;95451.19;;;34.64;40.56
740;BME280;354;42.694;23.336;2022-07-22T05:44:04;95448.78;;;35.66;39.60
740;BME280;354;42.694;23.336;2022-07-22T05:46:29;95454.31;;;36.49;37.53
740;BME280;354;42.694;23.336;2022-07-22T05:48:55;95457.44;;;37.15;36.34
740;BME280;354;42.694;23.336;2022-07-22T05:51:20;95464.28;;;36.95;36.32
740;BME280;354;42.694;23.336;2022-07-22T05:53:46;95455.13;;;36.23;36.16
740;BME280;354;42.694;23.336;2022-07-22T05:56:12;95452.53;;;36.34;34.99
740;BME280;354;42.694;23.336;2022-07-22T05:58:39;95457.84;;;36.23;35.83
740;BME280;354;42.694;23.336;2022-07-22T06:01:04;95452.25;;;36.42;34.96
740;BME280;354;42.694;23.336;2022-07-22T06:03:30;95457.44;;;35.45;36.06
740;BME280;354;42.694;23.336;2022-07-22T06:05:55;95456.56;;;35.41;37.05
740;BME280;354;42.694;23.336;2022-07-22T06:08:21;95439.22;;;34.91;37.16
740;BME280;354;42.694;23.336;2022-07-22T06:10:47;95447.88;;;35.58;36.73
740;BME280;354;42.694;23.336;2022-07-22T06:13:12;95455.84;;;35.67;37.02
740;BME280;354;42.694;23.336;2022-07-22T06:15:37;95451.81;;;36.10;35.38
740;BME280;354;42.694;23.336;2022-07-22T06:18:03;95450.19;;;36.36;35.79
740;BME280;354;42.694;23.336;2022-07-22T06:20:28;95457.91;;;35.28;36.62
740;BME280;354;42.694;23.336;2022-07-22T06:22:54;95445.75;;;35.48;35.74
740;BME280;354;42.694;23.336;2022-07-22T06:25:19;95445.53;;;35.83;35.85
740;BME280;354;42.694;23.336;2022-07-22T06:27:45;95445.50;;;36.06;35.22
740;BME280;354;42.694;23.336;2022-07-22T06:30:10;95437.38;;;36.13;34.20
740;BME280;354;42.694;23.336;2022-07-22T06:32:36;95456.44;;;36.33;34.67
740;BME280;354;42.694;23.336;2022-07-22T06:35:02;95444.72;;;36.36;34.19
740;BME280;354;42.694;23.336;2022-07-22T06:37:27;95455.66;;;36.36;34.34
740;BME280;354;42.694;23.336;2022-07-22T06:39:53;95428.75;;;36.41;34.29
740;BME280;354;42.694;23.336;2022-07-22T06:42:18;95449.56;;;36.46;35.17
740;BME280;354;42.694;23.336;2022-07-22T06:44:43;95462.28;;;36.61;33.83
740;BME280;354;42.694;23.336;2022-07-22T06:47:09;95458.19;;;36.78;34.11
740;BME280;354;42.694;23.336;2022-07-22T06:49:34;95458.06;;;36.37;33.64
740;BME280;354;42.694;23.336;2022-07-22T06:52:00;95448.47;;;36.84;33.43
740;BME280;354;42.694;23.336;2022-07-22T06:54:26;95455.28;;;36.98;33.44
740;BME280;354;42.694;23.336;2022-07-22T06:56:52;95457.16;;;36.90;32.51
740;BME280;354;42.694;23.336;2022-07-22T06:59:18;95450.41;;;36.84;32.69
740;BME280;354;42.694;23.336;2022-07-22T07:01:43;95446.91;;;37.21;32.61
740;BME280;354;42.694;23.336;2022-07-22T07:04:08;95457.91;;;37.24;33.52
740;BME280;354;42.694;23.336;2022-07-22T07:06:34;95462.53;;;37.57;32.61
740;BME280;354;42.694;23.336;2022-07-22T07:08:59;95456.66;;;37.55;32.24
740;BME280;354;42.694;23.336;2022-07-22T07:11:25;95457.50;;;38.14;31.68
740;BME280;354;42.694;23.336;2022-07-22T07:13:51;95462.28;;;38.28;30.80
740;BME280;354;42.694;23.336;2022-07-22T07:16:16;95466.03;;;37.99;30.79
740;BME280;354;42.694;23.336;2022-07-22T07:18:42;95458.91;;;36.75;32.33
740;BME280;354;42.694;23.336;2022-07-22T07:21:07;95452.97;;;35.60;34.75
740;BME280;354;42.694;23.336;2022-07-22T07:23:33;95449.84;;;34.19;35.14
740;BME280;354;42.694;23.336;2022-07-22T07:25:58;95452.34;;;32.97;37.76
740;BME280;354;42.694;23.336;2022-07-22T07:28:23;95437.19;;;32.04;38.80
740;BME280;354;42.694;23.336;2022-07-22T07:30:49;95447.38;;;31.70;41.20
740;BME280;354;42.694;23.336;2022-07-22T07:33:15;95441.22;;;31.12;41.63
740;BME280;354;42.694;23.336;2022-07-22T07:35:40;95435.44;;;30.47;43.58
740;BME280;354;42.694;23.336;2022-07-22T07:38:06;95436.03;;;30.11;43.69
740;BME280;354;42.694;23.336;2022-07-22T07:40:32;95444.75;;;29.96;45.63
740;BME280;354;42.694;23.336;2022-07-22T07:42:57;95434.06;;;30.41;44.70
740;BME280;354;42.694;23.336;2022-07-22T07:45:22;95437.13;;;30.93;43.62
740;BME280;354;42.694;23.336;2022-07-22T07:47:48;95442.25;;;31.19;42.07
740;BME280;354;42.694;23.336;2022-07-22T07:50:14;95441.63;;;31.35;41.11
740;BME280;354;42.694;23.336;2022-07-22T07:52:44;95432.31;;;31.48;41.88
740;BME280;354;42.694;23.336;2022-07-22T07:55:13;95447.09;;;31.14;42.96
740;BME280;354;42.694;23.336;2022-07-22T07:57:39;95442.84;;;30.80;43.20
740;BME280;354;42.694;23.336;2022-07-22T08:00:07;95433.97;;;30.70;42.32
740;BME280;354;42.694;23.336;2022-07-22T08:02:33;95441.31;;;30.49;43.16
740;BME280;354;42.694;23.336;2022-07-22T08:04:58;95434.59;;;30.34;43.20
740;BME280;354;42.694;23.336;2022-07-22T08:07:25;95438.59;;;30.07;41.55
740;BME280;354;42.694;23.336;2022-07-22T08:09:50;95421.53;;;30.07;41.71
740;BME280;354;42.694;23.336;2022-07-22T08:12:16;95446.25;;;30.05;42.43
740;BME280;354;42.694;23.336;2022-07-22T08:14:41;95435.69;;;29.91;42.44
740;BME280;354;42.694;23.336;2022-07-22T08:17:06;95441.72;;;29.97;44.00
740;BME280;354;42.694;23.336;2022-07-22T08:19:32;95437.47;;;30.08;43.05
740;BME280;354;42.694;23.336;2022-07-22T08:21:58;95435.78;;;30.25;42.15
740;BME280;354;42.694;23.336;2022-07-22T08:24:23;95437.56;;;30.41;43.01
740;BME280;354;42.694;23.336;2022-07-22T08:26:49;95433.06;;;30.46;42.97
740;BME280;354;42.694;23.336;2022-07-22T08:29:14;95431.00;;;30.42;42.62
740;BME280;354;42.694;23.336;2022-07-22T08:31:40;95436.97;;;30.57;42.39
740;BME280;354;42.694;23.336;2022-07-22T08:34:05;95432.88;;;30.72;42.97
740;BME280;354;42.694;23.336;2022-07-22T08:36:31;95440.03;;;30.88;42.61
740;BME280;354;42.694;23.336;2022-07-22T08:38:56;95433.19;;;30.70;41.60
740;BME280;354;42.694;23.336;2022-07-22T08:41:23;95436.03;;;30.74;42.14
740;BME280;354;42.694;23.336;2022-07-22T08:43:49;95429.41;;;30.62;42.07
740;BME280;354;42.694;23.336;2022-07-22T08:46:15;95434.16;;;30.65;41.84
740;BME280;354;42.694;23.336;2022-07-22T08:48:41;95436.84;;;30.65;39.69
740;BME280;354;42.694;23.336;2022-07-22T08:51:07;95433.50;;;30.68;40.63
740;BME280;354;42.694;23.336;2022-07-22T08:53:33;95424.28;;;30.82;40.68
740;BME280;354;42.694;23.336;2022-07-22T08:55:59;95433.69;;;30.84;39.10
740;BME280;354;42.694;23.336;2022-07-22T08:58:25;95435.50;;;30.92;38.74
740;BME280;354;42.694;23.336;2022-07-22T09:01:07;95429.84;;;30.85;38.16
740;BME280;354;42.694;23.336;2022-07-22T09:03:43;95422.41;;;30.94;38.24
740;BME280;354;42.694;23.336;2022-07-22T09:06:10;95441.69;;;31.26;38.81
740;BME280;354;42.694;23.336;2022-07-22T09:08:57;95441.91;;;31.21;38.85
740;BME280;354;42.694;23.336;2022-07-22T09:11:26;95438.31;;;31.29;38.44
740;BME280;354;42.694;23.336;2022-07-22T09:13:54;95443.75;;;31.29;38.78
740;BME280;354;42.694;23.336;2022-07-22T09:16:42;95438.09;;;31.34;39.16
740;BME280;354;42.694;23.336;2022-07-22T09:19:08;95439.91;;;31.30;38.64
740;BME280;354;42.694;23.336;2022-07-22T09:21:35;95445.25;;;31.39;39.35
740;BME280;354;42.694;23.336;2022-07-22T09:24:03;95441.16;;;31.45;38.35
740;BME280;354;42.694;23.336;2022-07-22T09:26:31;95442.19;;;31.40;37.93
740;BME280;354;42.694;23.336;2022-07-22T09:28:58;95446.97;;;31.43;38.36
740;BME280;354;42.694;23.336;2022-07-22T09:31:29;95433.41;;;31.22;38.56
740;BME280;354;42.694;23.336;2022-07-22T09:33:56;95427.44;;;31.29;39.12
740;BME280;354;42.694;23.336;2022-07-22T09:36:22;95439.19;;;31.21;40.30
740;BME280;354;42.694;23.336;2022-07-22T09:38:48;95422.31;;;31.15;39.20
740;BME280;354;42.694;23.336;2022-07-22T09:41:13;95431.13;;;31.12;40.07
740;BME280;354;42.694;23.336;2022-07-22T09:43:39;95404.97;;;31.20;39.72
740;BME280;354;42.694;23.336;2022-07-22T09:46:05;95420.22;;;31.45;38.85
740;BME280;354;42.694;23.336;2022-07-22T09:48:30;95432.66;;;31.46;37.60
740;BME280;354;42.694;23.336;2022-07-22T09:50:56;95427.81;;;31.40;37.77
740;BME280;354;42.694;23.336;2022-07-22T09:53:23;95418.97;;;31.43;37.70
740;BME280;354;42.694;23.336;2022-07-22T09:55:49;95426.31;;;31.67;38.68
740;BME280;354;42.694;23.336;2022-07-22T09:58:15;95419.75;;;31.68;37.83
740;BME280;354;42.694;23.336;2022-07-22T10:00:42;95415.88;;;31.69;37.37
740;BME280;354;42.694;23.336;2022-07-22T10:03:11;95413.97;;;31.69;38.27
740;BME280;354;42.694;23.336;2022-07-22T10:05:40;95414.09;;;31.85;38.20
740;BME280;354;42.694;23.336;2022-07-22T10:08:07;95376.91;;;31.77;37.90
740;BME280;354;42.694;23.336;2022-07-22T10:10:34;95409.16;;;32.15;38.00
740;BME280;354;42.694;23.336;2022-07-22T10:13:01;95418.88;;;32.29;37.77
740;BME280;354;42.694;23.336;2022-07-22T10:15:28;95411.50;;;32.29;36.63
740;BME280;354;42.694;23.336;2022-07-22T10:17:56;95412.63;;;32.28;37.88
740;BME280;354;42.694;23.336;2022-07-22T10:20:23;95398.16;;;32.12;37.55
740;BME280;354;42.694;23.336;2022-07-22T10:23:03;95406.44;;;32.15;36.68
740;BME280;354;42.694;23.336;2022-07-22T10:25:31;95409.53;;;32.02;36.69
740;BME280;354;42.694;23.336;2022-07-22T10:27:58;95411.34;;;32.10;37.81
740;BME280;354;42.694;23.336;2022-07-22T10:30:29;95416.69;;;31.94;38.24
740;BME280;354;42.694;23.336;2022-07-22T10:33:09;95400.47;;;31.97;37.46
740;BME280;354;42.694;23.336;2022-07-22T10:35:59;95399.19;;;32.07;37.07
740;BME280;354;42.694;23.336;2022-07-22T10:38:25;95391.94;;;32.11;37.00
740;BME280;354;42.694;23.336;2022-07-22T10:40:59;95376.69;;;31.94;37.07
740;BME280;354;42.694;23.336;2022-07-22T10:43:29;95388.66;;;32.06;36.63
740;BME280;354;42.694;23.336;2022-07-22T10:45:58;95391.56;;;32.13;37.65
740;BME280;354;42.694;23.336;2022-07-22T10:51:17;95390.97;;;32.60;39.13
740;BME280;354;42.694;23.336;2022-07-22T10:56:32;95394.97;;;32.78;36.05
740;BME280;354;42.694;23.336;2022-07-22T10:59:11;95390.84;;;32.84;35.78
740;BME280;354;42.694;23.336;2022-07-22T11:01:49;95400.22;;;32.71;35.00
740;BME280;354;42.694;23.336;2022-07-22T11:04:20;95391.34;;;32.74;35.47
740;BME280;354;42.694;23.336;2022-07-22T11:06:51;95389.94;;;32.80;36.27
740;BME280;354;42.694;23.336;2022-07-22T11:09:20;95381.78;;;32.80;35.36
740;BME280;354;42.694;23.336;2022-07-22T11:11:48;95389.94;;;32.80;35.02
740;BME280;354;42.694;23.336;2022-07-22T11:16:48;95385.97;;;33.06;34.58
740;BME280;354;42.694;23.336;2022-07-22T11:19:14;95386.47;;;32.95;35.37
740;BME280;354;42.694;23.336;2022-07-22T11:21:39;95376.00;;;32.82;35.53
740;BME280;354;42.694;23.336;2022-07-22T11:24:07;95374.81;;;32.67;34.96
740;BME280;354;42.694;23.336;2022-07-22T11:26:37;95382.97;;;32.51;35.22
740;BME280;354;42.694;23.336;2022-07-22T11:29:04;95380.78;;;32.57;34.50
740;BME280;354;42.694;23.336;2022-07-22T11:31:29;95386.28;;;32.44;34.97
740;BME280;354;42.694;23.336;2022-07-22T11:34:15;95386.94;;;32.54;35.02
740;BME280;354;42.694;23.336;2022-07-22T11:36:44;95377.47;;;32.79;35.63
740;BME280;354;42.694;23.336;2022-07-22T11:39:11;95379.63;;;33.01;36.54
740;BME280;354;42.694;23.336;2022-07-22T11:41:37;95363.22;;;33.14;34.69
740;BME280;354;42.694;23.336;2022-07-22T11:44:04;95369.78;;;33.28;33.96
740;BME280;354;42.694;23.336;2022-07-22T11:46:41;95365.03;;;33.57;34.88
740;BME280;354;42.694;23.336;2022-07-22T11:49:07;95366.44;;;33.86;35.38
740;BME280;354;42.694;23.336;2022-07-22T11:51:36;95381.00;;;34.10;35.03
740;BME280;354;42.694;23.336;2022-07-22T11:54:02;95375.03;;;33.69;34.68
740;BME280;354;42.694;23.336;2022-07-22T11:56:28;95373.38;;;33.17;34.26
740;BME280;354;42.694;23.336;2022-07-22T11:58:54;95385.09;;;33.17;34.93
740;BME280;354;42.694;23.336;2022-07-22T12:01:25;95372.97;;;33.15;34.37
740;BME280;354;42.694;23.336;2022-07-22T12:04:00;95361.53;;;33.09;35.33
740;BME280;354;42.694;23.336;2022-07-22T12:06:27;95371.56;;;33.05;35.61
740;BME280;354;42.694;23.336;2022-07-22T12:09:03;95372.44;;;32.93;34.28
740;BME280;354;42.694;23.336;2022-07-22T12:11:29;95366.00;;;33.01;35.04
740;BME280;354;42.694;23.336;2022-07-22T12:13:55;95359.69;;;32.97;34.91
740;BME280;354;42.694;23.336;2022-07-22T12:16:26;95368.81;;;33.05;36.18
740;BME280;354;42.694;23.336;2022-07-22T12:19:12;95366.19;;;33.09;34.12
740;BME280;354;42.694;23.336;2022-07-22T12:24:25;95365.63;;;32.87;34.87
740;BME280;354;42.694;23.336;2022-07-22T12:26:50;95359.72;;;32.85;35.19
740;BME280;354;42.694;23.336;2022-07-22T12:29:18;95364.94;;;32.90;35.13
740;BME280;354;42.694;23.336;2022-07-22T12:31:55;95355.19;;;32.89;34.95
740;BME280;354;42.694;23.336;2022-07-22T12:34:41;95359.06;;;33.04;35.17
740;BME280;354;42.694;23.336;2022-07-22T12:39:56;95363.53;;;33.12;35.37
740;BME280;354;42.694;23.336;2022-07-22T12:42:28;95345.44;;;33.20;35.99
740;BME280;354;42.694;23.336;2022-07-22T12:45:04;95350.00;;;33.32;35.56
740;BME280;354;42.694;23.336;2022-07-22T12:47:50;95350.88;;;33.36;32.91
740;BME280;354;42.694;23.336;2022-07-22T12:55:24;95352.38;;;33.01;33.53
740;BME280;354;42.694;23.336;2022-07-22T12:57:51;95333.41;;;32.89;34.16
740;BME280;354;42.694;23.336;2022-07-22T13:00:21;95344.03;;;32.94;33.92
740;BME280;354;42.694;23.336;2022-07-22T13:02:48;95347.69;;;32.86;34.32
740;BME280;354;42.694;23.336;2022-07-22T13:05:14;95343.50;;;32.89;33.04
740;BME280;354;42.694;23.336;2022-07-22T13:07:40;95354.25;;;32.97;33.60
740;BME280;354;42.694;23.336;2022-07-22T13:10:06;95345.19;;;32.93;32.99
740;BME280;354;42.694;23.336;2022-07-22T13:12:32;95340.66;;;32.85;33.05
740;BME280;354;42.694;23.336;2022-07-22T13:14:57;95351.94;;;32.99;32.81
740;BME280;354;42.694;23.336;2022-07-22T13:17:23;95346.06;;;32.97;32.67
740;BME280;354;42.694;23.336;2022-07-22T13:19:48;95352.03;;;33.03;33.07
740;BME280;354;42.694;23.336;2022-07-22T13:22:13;95348.69;;;33.10;33.79
740;BME280;354;42.694;23.336;2022-07-22T13:24:39;95344.66;;;33.03;33.00
740;BME280;354;42.694;23.336;2022-07-22T13:27:04;95344.28;;;32.89;34.14
740;BME280;354;42.694;23.336;2022-07-22T13:29:29;95353.53;;;33.00;33.32
740;BME280;354;42.694;23.336;2022-07-22T13:31:55;95349.06;;;32.92;33.91
740;BME280;354;42.694;23.336;2022-07-22T13:34:20;95356.25;;;33.00;34.17
740;BME280;354;42.694;23.336;2022-07-22T13:36:46;95353.09;;;32.98;33.36
740;BME280;354;42.694;23.336;2022-07-22T13:39:11;95362.06;;;32.99;32.71
740;BME280;354;42.694;23.336;2022-07-22T13:41:37;95358.63;;;33.02;33.94
740;BME280;354;42.694;23.336;2022-07-22T13:44:02;95358.97;;;33.00;32.73
740;BME280;354;42.694;23.336;2022-07-22T13:46:28;95361.88;;;32.92;33.46